sensor_id;sensor_type;location;lat;lon;timestamp;P1;durP1;ratioP1;P2;durP2;ratioP2
14118;SDS011;7138;49.246;9.100;2023-01-28T00:02:06;5.03;;;2.50;;
14118;SDS011;7138;49.246;9.100;2023-01-28T00:04:32;4.20;;;1.95;;
14118;SDS011;7138;49.246;9.100;2023-01-28T00:06:58;4.18;;;2.25;;
14118;SDS011;7138;49.246;9.100;2023-01-28T00:09:24;3.97;;;1.95;;
14118;SDS011;7138;49.246;9.100;2023-01-28T00:11:49;4.18;;;2.03;;
14118;SDS011;7138;49.246;9.100;2023-01-28T00:14:15;4.60;;;2.20;;
14118;SDS011;7138;49.246;9.100;2023-01-28T00:16:41;4.28;;;2.13;;
14118;SDS011;7138;49.246;9.100;2023-01-28T00:19:09;4.55;;;2.20;;
14118;SDS011;7138;49.246;9.100;2023-01-28T00:21:35;4.03;;;2.03;;
14118;SDS011;7138;49.246;9.100;2023-01-28T00:24:01;3.53;;;1.80;;
14118;SDS011;7138;49.246;9.100;2023-01-28T00:26:26;4.85;;;1.80;;
14118;SDS011;7138;49.246;9.100;2023-01-28T00:28:52;4.30;;;2.10;;
14118;SDS011;7138;49.246;9.100;2023-01-28T00:31:18;4.70;;;2.33;;
14118;SDS011;7138;49.246;9.100;2023-01-28T00:33:47;4.63;;;2.25;;
14118;SDS011;7138;49.246;9.100;2023-01-28T00:36:16;3.80;;;1.98;;
14118;SDS011;7138;49.246;9.100;2023-01-28T00:38:47;4.67;;;2.20;;
14118;SDS011;7138;49.246;9.100;2023-01-28T00:41:15;4.82;;;2.20;;
14118;SDS011;7138;49.246;9.100;2023-01-28T00:43:46;4.32;;;2.30;;
14118;SDS011;7138;49.246;9.100;2023-01-28T00:46:12;4.55;;;2.50;;
14118;SDS011;7138;49.246;9.100;2023-01-28T00:48:39;5.03;;;2.40;;
14118;SDS011;7138;49.246;9.100;2023-01-28T00:51:08;4.97;;;2.58;;
14118;SDS011;7138;49.246;9.100;2023-01-28T00:53:38;6.35;;;2.70;;
14118;SDS011;7138;49.246;9.100;2023-01-28T00:56:05;5.60;;;2.80;;
14118;SDS011;7138;49.246;9.100;2023-01-28T00:58:33;5.25;;;2.92;;
14118;SDS011;7138;49.246;9.100;2023-01-28T01:01:05;4.00;;;1.92;;
14118;SDS011;7138;49.246;9.100;2023-01-28T01:03:33;4.57;;;2.45;;
14118;SDS011;7138;49.246;9.100;2023-01-28T01:05:59;5.20;;;2.30;;
14118;SDS011;7138;49.246;9.100;2023-01-28T01:08:25;3.92;;;1.98;;
14118;SDS011;7138;49.246;9.100;2023-01-28T01:11:00;4.72;;;2.35;;
14118;SDS011;7138;49.246;9.100;2023-01-28T01:13:27;5.07;;;2.60;;
14118;SDS011;7138;49.246;9.100;2023-01-28T01:15:59;4.13;;;2.10;;
14118;SDS011;7138;49.246;9.100;2023-01-28T01:18:27;4.25;;;2.28;;
14118;SDS011;7138;49.246;9.100;2023-01-28T01:20:53;4.50;;;2.40;;
14118;SDS011;7138;49.246;9.100;2023-01-28T01:23:22;3.28;;;1.85;;
14118;SDS011;7138;49.246;9.100;2023-01-28T01:25:49;4.82;;;2.55;;
14118;SDS011;7138;49.246;9.100;2023-01-28T01:28:17;5.47;;;2.65;;
14118;SDS011;7138;49.246;9.100;2023-01-28T01:30:44;4.80;;;2.70;;
14118;SDS011;7138;49.246;9.100;2023-01-28T01:33:10;5.35;;;2.08;;
14118;SDS011;7138;49.246;9.100;2023-01-28T01:35:36;4.22;;;2.30;;
14118;SDS011;7138;49.246;9.100;2023-01-28T01:38:02;4.55;;;2.33;;
14118;SDS011;7138;49.246;9.100;2023-01-28T01:40:28;4.22;;;2.45;;
14118;SDS011;7138;49.246;9.100;2023-01-28T01:42:54;4.15;;;2.25;;
14118;SDS011;7138;49.246;9.100;2023-01-28T01:45:21;5.13;;;2.42;;
14118;SDS011;7138;49.246;9.100;2023-01-28T01:47:48;4.72;;;2.30;;
14118;SDS011;7138;49.246;9.100;2023-01-28T01:50:25;4.90;;;2.60;;
14118;SDS011;7138;49.246;9.100;2023-01-28T01:52:59;6.50;;;2.75;;
14118;SDS011;7138;49.246;9.100;2023-01-28T01:55:31;5.90;;;2.50;;
14118;SDS011;7138;49.246;9.100;2023-01-28T01:58:02;3.97;;;2.20;;
14118;SDS011;7138;49.246;9.100;2023-01-28T02:00:36;4.13;;;2.25;;
14118;SDS011;7138;49.246;9.100;2023-01-28T02:03:02;4.93;;;2.38;;
14118;SDS011;7138;49.246;9.100;2023-01-28T02:05:28;4.60;;;2.22;;
14118;SDS011;7138;49.246;9.100;2023-01-28T02:07:55;4.20;;;2.20;;
14118;SDS011;7138;49.246;9.100;2023-01-28T02:10:43;3.97;;;1.98;;
14118;SDS011;7138;49.246;9.100;2023-01-28T02:13:13;4.55;;;2.10;;
14118;SDS011;7138;49.246;9.100;2023-01-28T02:15:44;4.07;;;1.80;;
14118;SDS011;7138;49.246;9.100;2023-01-28T02:18:13;4.57;;;1.90;;
14118;SDS011;7138;49.246;9.100;2023-01-28T02:20:44;4.03;;;2.15;;
14118;SDS011;7138;49.246;9.100;2023-01-28T02:23:43;3.70;;;1.63;;
14118;SDS011;7138;49.246;9.100;2023-01-28T02:26:39;3.75;;;1.80;;
14118;SDS011;7138;49.246;9.100;2023-01-28T02:29:36;3.85;;;2.00;;
14118;SDS011;7138;49.246;9.100;2023-01-28T02:32:09;3.85;;;1.83;;
14118;SDS011;7138;49.246;9.100;2023-01-28T02:34:42;4.25;;;1.85;;
14118;SDS011;7138;49.246;9.100;2023-01-28T02:37:13;4.15;;;1.90;;
14118;SDS011;7138;49.246;9.100;2023-01-28T02:39:48;4.20;;;1.98;;
14118;SDS011;7138;49.246;9.100;2023-01-28T02:42:21;6.28;;;2.50;;
14118;SDS011;7138;49.246;9.100;2023-01-28T02:44:54;3.83;;;1.90;;
14118;SDS011;7138;49.246;9.100;2023-01-28T02:47:20;3.65;;;1.60;;
14118;SDS011;7138;49.246;9.100;2023-01-28T02:50:06;4.22;;;1.85;;
14118;SDS011;7138;49.246;9.100;2023-01-28T02:52:40;3.83;;;1.92;;
14118;SDS011;7138;49.246;9.100;2023-01-28T02:55:42;3.60;;;1.92;;
14118;SDS011;7138;49.246;9.100;2023-01-28T02:58:21;3.83;;;1.80;;
14118;SDS011;7138;49.246;9.100;2023-01-28T03:01:02;3.85;;;1.80;;
14118;SDS011;7138;49.246;9.100;2023-01-28T03:03:41;4.40;;;2.13;;
14118;SDS011;7138;49.246;9.100;2023-01-28T03:06:19;4.28;;;1.90;;
14118;SDS011;7138;49.246;9.100;2023-01-28T03:08:52;3.70;;;1.90;;
14118;SDS011;7138;49.246;9.100;2023-01-28T03:11:42;3.50;;;1.92;;
14118;SDS011;7138;49.246;9.100;2023-01-28T03:14:31;3.88;;;2.05;;
14118;SDS011;7138;49.246;9.100;2023-01-28T03:17:20;3.60;;;1.80;;
14118;SDS011;7138;49.246;9.100;2023-01-28T03:20:12;3.80;;;1.88;;
14118;SDS011;7138;49.246;9.100;2023-01-28T03:22:58;3.75;;;2.10;;
14118;SDS011;7138;49.246;9.100;2023-01-28T03:25:51;3.92;;;1.88;;
14118;SDS011;7138;49.246;9.100;2023-01-28T03:28:41;5.15;;;2.15;;
14118;SDS011;7138;49.246;9.100;2023-01-28T03:31:30;4.00;;;2.10;;
14118;SDS011;7138;49.246;9.100;2023-01-28T03:34:18;4.70;;;2.20;;
14118;SDS011;7138;49.246;9.100;2023-01-28T03:37:05;4.03;;;2.00;;
14118;SDS011;7138;49.246;9.100;2023-01-28T03:39:33;4.88;;;2.38;;
14118;SDS011;7138;49.246;9.100;2023-01-28T03:42:01;4.57;;;2.38;;
14118;SDS011;7138;49.246;9.100;2023-01-28T03:44:30;4.15;;;2.10;;
14118;SDS011;7138;49.246;9.100;2023-01-28T03:47:18;4.47;;;2.40;;
14118;SDS011;7138;49.246;9.100;2023-01-28T03:49:47;5.10;;;2.83;;
14118;SDS011;7138;49.246;9.100;2023-01-28T03:52:17;4.97;;;2.47;;
14118;SDS011;7138;49.246;9.100;2023-01-28T03:54:45;4.63;;;2.47;;
14118;SDS011;7138;49.246;9.100;2023-01-28T03:57:12;5.45;;;2.97;;
14118;SDS011;7138;49.246;9.100;2023-01-28T03:59:39;6.10;;;3.10;;
14118;SDS011;7138;49.246;9.100;2023-01-28T04:02:05;5.43;;;2.95;;
14118;SDS011;7138;49.246;9.100;2023-01-28T04:04:32;6.28;;;3.00;;
14118;SDS011;7138;49.246;9.100;2023-01-28T04:06:59;5.70;;;3.13;;
14118;SDS011;7138;49.246;9.100;2023-01-28T04:09:25;5.72;;;3.13;;
14118;SDS011;7138;49.246;9.100;2023-01-28T04:11:51;6.15;;;3.35;;
14118;SDS011;7138;49.246;9.100;2023-01-28T04:14:16;6.05;;;3.22;;
14118;SDS011;7138;49.246;9.100;2023-01-28T04:16:43;4.97;;;2.63;;
14118;SDS011;7138;49.246;9.100;2023-01-28T04:19:09;5.10;;;3.00;;
14118;SDS011;7138;49.246;9.100;2023-01-28T04:21:36;6.00;;;3.40;;
14118;SDS011;7138;49.246;9.100;2023-01-28T04:24:04;5.47;;;2.70;;
14118;SDS011;7138;49.246;9.100;2023-01-28T04:26:30;5.38;;;2.80;;
14118;SDS011;7138;49.246;9.100;2023-01-28T04:28:56;5.32;;;3.05;;
14118;SDS011;7138;49.246;9.100;2023-01-28T04:31:22;5.35;;;2.88;;
14118;SDS011;7138;49.246;9.100;2023-01-28T04:33:48;6.35;;;3.45;;
14118;SDS011;7138;49.246;9.100;2023-01-28T04:36:14;6.57;;;3.25;;
14118;SDS011;7138;49.246;9.100;2023-01-28T04:38:40;5.97;;;3.20;;
14118;SDS011;7138;49.246;9.100;2023-01-28T04:41:08;5.30;;;3.10;;
14118;SDS011;7138;49.246;9.100;2023-01-28T04:43:34;5.25;;;2.90;;
14118;SDS011;7138;49.246;9.100;2023-01-28T04:46:00;5.55;;;3.03;;
14118;SDS011;7138;49.246;9.100;2023-01-28T04:48:26;6.00;;;3.20;;
14118;SDS011;7138;49.246;9.100;2023-01-28T04:50:54;6.30;;;3.63;;
14118;SDS011;7138;49.246;9.100;2023-01-28T04:53:20;6.25;;;3.03;;
14118;SDS011;7138;49.246;9.100;2023-01-28T04:55:47;6.05;;;3.50;;
14118;SDS011;7138;49.246;9.100;2023-01-28T04:58:14;5.90;;;3.60;;
14118;SDS011;7138;49.246;9.100;2023-01-28T05:00:40;5.70;;;3.08;;
14118;SDS011;7138;49.246;9.100;2023-01-28T05:03:05;5.90;;;3.08;;
14118;SDS011;7138;49.246;9.100;2023-01-28T05:05:31;6.97;;;3.72;;
14118;SDS011;7138;49.246;9.100;2023-01-28T05:07:57;6.38;;;3.53;;
14118;SDS011;7138;49.246;9.100;2023-01-28T05:10:23;6.97;;;3.47;;
14118;SDS011;7138;49.246;9.100;2023-01-28T05:12:51;6.47;;;3.80;;
14118;SDS011;7138;49.246;9.100;2023-01-28T05:15:19;8.27;;;3.88;;
14118;SDS011;7138;49.246;9.100;2023-01-28T05:17:45;6.53;;;4.10;;
14118;SDS011;7138;49.246;9.100;2023-01-28T05:20:12;7.00;;;3.60;;
14118;SDS011;7138;49.246;9.100;2023-01-28T05:22:39;6.68;;;3.80;;
14118;SDS011;7138;49.246;9.100;2023-01-28T05:25:06;7.38;;;4.05;;
14118;SDS011;7138;49.246;9.100;2023-01-28T05:27:33;6.93;;;3.85;;
14118;SDS011;7138;49.246;9.100;2023-01-28T05:29:59;8.25;;;4.63;;
14118;SDS011;7138;49.246;9.100;2023-01-28T05:32:26;8.50;;;4.93;;
14118;SDS011;7138;49.246;9.100;2023-01-28T05:34:52;8.77;;;5.15;;
14118;SDS011;7138;49.246;9.100;2023-01-28T05:37:18;9.52;;;5.15;;
14118;SDS011;7138;49.246;9.100;2023-01-28T05:39:44;7.93;;;4.28;;
14118;SDS011;7138;49.246;9.100;2023-01-28T05:42:10;8.90;;;4.78;;
14118;SDS011;7138;49.246;9.100;2023-01-28T05:44:35;7.20;;;4.10;;
14118;SDS011;7138;49.246;9.100;2023-01-28T05:47:02;7.85;;;4.28;;
14118;SDS011;7138;49.246;9.100;2023-01-28T05:49:29;8.43;;;4.47;;
14118;SDS011;7138;49.246;9.100;2023-01-28T05:51:55;7.95;;;4.35;;
14118;SDS011;7138;49.246;9.100;2023-01-28T05:54:21;7.93;;;4.25;;
14118;SDS011;7138;49.246;9.100;2023-01-28T05:56:49;7.47;;;4.05;;
14118;SDS011;7138;49.246;9.100;2023-01-28T05:59:15;8.98;;;4.40;;
14118;SDS011;7138;49.246;9.100;2023-01-28T06:01:41;8.63;;;4.30;;
14118;SDS011;7138;49.246;9.100;2023-01-28T06:04:07;9.00;;;4.80;;
14118;SDS011;7138;49.246;9.100;2023-01-28T06:06:34;9.05;;;4.93;;
14118;SDS011;7138;49.246;9.100;2023-01-28T06:09:00;9.55;;;4.65;;
14118;SDS011;7138;49.246;9.100;2023-01-28T06:11:26;10.90;;;6.05;;
14118;SDS011;7138;49.246;9.100;2023-01-28T06:13:51;10.63;;;5.22;;
14118;SDS011;7138;49.246;9.100;2023-01-28T06:16:17;8.15;;;4.60;;
14118;SDS011;7138;49.246;9.100;2023-01-28T06:18:43;8.13;;;4.72;;
14118;SDS011;7138;49.246;9.100;2023-01-28T06:21:09;10.38;;;5.50;;
14118;SDS011;7138;49.246;9.100;2023-01-28T06:23:37;9.55;;;5.20;;
14118;SDS011;7138;49.246;9.100;2023-01-28T06:26:03;9.10;;;4.70;;
14118;SDS011;7138;49.246;9.100;2023-01-28T06:28:29;10.43;;;5.20;;
14118;SDS011;7138;49.246;9.100;2023-01-28T06:30:54;12.32;;;6.40;;
14118;SDS011;7138;49.246;9.100;2023-01-28T06:33:20;14.65;;;7.07;;
14118;SDS011;7138;49.246;9.100;2023-01-28T06:35:48;12.82;;;6.85;;
14118;SDS011;7138;49.246;9.100;2023-01-28T06:38:14;11.40;;;6.47;;
14118;SDS011;7138;49.246;9.100;2023-01-28T06:40:41;12.50;;;6.40;;
14118;SDS011;7138;49.246;9.100;2023-01-28T06:43:07;15.18;;;6.22;;
14118;SDS011;7138;49.246;9.100;2023-01-28T06:45:33;10.77;;;5.53;;
14118;SDS011;7138;49.246;9.100;2023-01-28T06:47:58;10.40;;;5.40;;
14118;SDS011;7138;49.246;9.100;2023-01-28T06:50:24;10.88;;;6.10;;
14118;SDS011;7138;49.246;9.100;2023-01-28T06:52:50;10.98;;;5.85;;
14118;SDS011;7138;49.246;9.100;2023-01-28T06:55:16;10.63;;;6.20;;
14118;SDS011;7138;49.246;9.100;2023-01-28T06:57:43;12.27;;;5.90;;
14118;SDS011;7138;49.246;9.100;2023-01-28T07:00:10;11.38;;;5.88;;
14118;SDS011;7138;49.246;9.100;2023-01-28T07:05:05;11.00;;;5.55;;
14118;SDS011;7138;49.246;9.100;2023-01-28T07:07:32;10.82;;;5.63;;
14118;SDS011;7138;49.246;9.100;2023-01-28T07:09:58;9.20;;;5.47;;
14118;SDS011;7138;49.246;9.100;2023-01-28T07:12:24;11.38;;;5.70;;
14118;SDS011;7138;49.246;9.100;2023-01-28T07:14:51;9.52;;;5.53;;
14118;SDS011;7138;49.246;9.100;2023-01-28T07:17:17;9.48;;;5.00;;
14118;SDS011;7138;49.246;9.100;2023-01-28T07:19:43;12.82;;;5.85;;
14118;SDS011;7138;49.246;9.100;2023-01-28T07:22:08;10.73;;;6.00;;
14118;SDS011;7138;49.246;9.100;2023-01-28T07:24:34;12.15;;;5.85;;
14118;SDS011;7138;49.246;9.100;2023-01-28T07:27:00;11.35;;;5.63;;
14118;SDS011;7138;49.246;9.100;2023-01-28T07:29:26;12.05;;;5.50;;
14118;SDS011;7138;49.246;9.100;2023-01-28T07:31:53;9.75;;;5.03;;
14118;SDS011;7138;49.246;9.100;2023-01-28T07:34:19;9.85;;;5.30;;
14118;SDS011;7138;49.246;9.100;2023-01-28T07:36:45;9.63;;;5.30;;
14118;SDS011;7138;49.246;9.100;2023-01-28T07:39:10;13.52;;;5.88;;
14118;SDS011;7138;49.246;9.100;2023-01-28T07:41:36;10.13;;;5.25;;
14118;SDS011;7138;49.246;9.100;2023-01-28T07:44:02;10.15;;;5.50;;
14118;SDS011;7138;49.246;9.100;2023-01-28T07:46:29;10.55;;;5.30;;
14118;SDS011;7138;49.246;9.100;2023-01-28T07:48:56;9.48;;;5.28;;
14118;SDS011;7138;49.246;9.100;2023-01-28T07:51:22;8.63;;;4.97;;
14118;SDS011;7138;49.246;9.100;2023-01-28T07:53:48;12.65;;;6.13;;
14118;SDS011;7138;49.246;9.100;2023-01-28T07:56:13;9.95;;;5.43;;
14118;SDS011;7138;49.246;9.100;2023-01-28T07:58:39;11.80;;;5.75;;
14118;SDS011;7138;49.246;9.100;2023-01-28T08:01:05;10.60;;;5.78;;
14118;SDS011;7138;49.246;9.100;2023-01-28T08:03:31;12.07;;;5.53;;
14118;SDS011;7138;49.246;9.100;2023-01-28T08:05:58;10.32;;;5.53;;
14118;SDS011;7138;49.246;9.100;2023-01-28T08:08:24;10.70;;;5.38;;
14118;SDS011;7138;49.246;9.100;2023-01-28T08:10:51;10.50;;;5.07;;
14118;SDS011;7138;49.246;9.100;2023-01-28T08:13:18;9.73;;;5.22;;
14118;SDS011;7138;49.246;9.100;2023-01-28T08:15:44;10.07;;;5.63;;
14118;SDS011;7138;49.246;9.100;2023-01-28T08:18:11;9.68;;;5.57;;
14118;SDS011;7138;49.246;9.100;2023-01-28T08:20:40;10.02;;;5.72;;
14118;SDS011;7138;49.246;9.100;2023-01-28T08:23:13;9.65;;;5.13;;
14118;SDS011;7138;49.246;9.100;2023-01-28T08:25:41;11.98;;;6.00;;
14118;SDS011;7138;49.246;9.100;2023-01-28T08:28:07;10.43;;;5.63;;
14118;SDS011;7138;49.246;9.100;2023-01-28T08:30:35;10.32;;;5.72;;
14118;SDS011;7138;49.246;9.100;2023-01-28T08:33:03;10.93;;;5.30;;
14118;SDS011;7138;49.246;9.100;2023-01-28T08:35:30;10.95;;;5.70;;
14118;SDS011;7138;49.246;9.100;2023-01-28T08:37:57;10.45;;;5.40;;
14118;SDS011;7138;49.246;9.100;2023-01-28T08:40:26;10.32;;;5.05;;
14118;SDS011;7138;49.246;9.100;2023-01-28T08:42:54;8.75;;;5.05;;
14118;SDS011;7138;49.246;9.100;2023-01-28T08:45:20;8.57;;;4.68;;
14118;SDS011;7138;49.246;9.100;2023-01-28T08:47:49;9.23;;;4.82;;
14118;SDS011;7138;49.246;9.100;2023-01-28T08:50:18;9.43;;;5.53;;
14118;SDS011;7138;49.246;9.100;2023-01-28T08:52:45;9.05;;;4.80;;
14118;SDS011;7138;49.246;9.100;2023-01-28T08:55:13;9.68;;;5.32;;
14118;SDS011;7138;49.246;9.100;2023-01-28T08:57:41;8.52;;;4.85;;
14118;SDS011;7138;49.246;9.100;2023-01-28T09:00:08;9.13;;;5.07;;
14118;SDS011;7138;49.246;9.100;2023-01-28T09:02:35;9.95;;;4.90;;
14118;SDS011;7138;49.246;9.100;2023-01-28T09:05:02;8.27;;;5.03;;
14118;SDS011;7138;49.246;9.100;2023-01-28T09:07:29;8.52;;;4.95;;
14118;SDS011;7138;49.246;9.100;2023-01-28T09:09:55;9.15;;;4.80;;
14118;SDS011;7138;49.246;9.100;2023-01-28T09:12:21;9.20;;;4.50;;
14118;SDS011;7138;49.246;9.100;2023-01-28T09:14:49;7.38;;;4.43;;
14118;SDS011;7138;49.246;9.100;2023-01-28T09:17:17;8.25;;;4.60;;
14118;SDS011;7138;49.246;9.100;2023-01-28T09:19:43;8.50;;;4.60;;
14118;SDS011;7138;49.246;9.100;2023-01-28T09:22:09;8.85;;;4.90;;
14118;SDS011;7138;49.246;9.100;2023-01-28T09:24:35;8.68;;;4.72;;
14118;SDS011;7138;49.246;9.100;2023-01-28T09:27:01;8.93;;;4.90;;
14118;SDS011;7138;49.246;9.100;2023-01-28T09:29:27;9.27;;;5.00;;
14118;SDS011;7138;49.246;9.100;2023-01-28T09:31:54;8.60;;;4.82;;
14118;SDS011;7138;49.246;9.100;2023-01-28T09:34:20;9.25;;;4.72;;
14118;SDS011;7138;49.246;9.100;2023-01-28T09:36:46;8.80;;;5.20;;
14118;SDS011;7138;49.246;9.100;2023-01-28T09:39:12;8.52;;;4.72;;
14118;SDS011;7138;49.246;9.100;2023-01-28T09:41:41;9.55;;;5.45;;
14118;SDS011;7138;49.246;9.100;2023-01-28T09:44:26;10.63;;;5.30;;
14118;SDS011;7138;49.246;9.100;2023-01-28T09:47:18;8.52;;;4.68;;
14118;SDS011;7138;49.246;9.100;2023-01-28T09:49:50;9.02;;;4.72;;
14118;SDS011;7138;49.246;9.100;2023-01-28T09:52:21;8.10;;;4.82;;
14118;SDS011;7138;49.246;9.100;2023-01-28T09:54:51;8.20;;;4.93;;
14118;SDS011;7138;49.246;9.100;2023-01-28T09:57:27;8.88;;;4.65;;
14118;SDS011;7138;49.246;9.100;2023-01-28T10:00:02;8.15;;;4.80;;
14118;SDS011;7138;49.246;9.100;2023-01-28T10:02:39;8.25;;;4.43;;
14118;SDS011;7138;49.246;9.100;2023-01-28T10:05:23;10.13;;;4.88;;
14118;SDS011;7138;49.246;9.100;2023-01-28T10:08:04;8.77;;;4.32;;
14118;SDS011;7138;49.246;9.100;2023-01-28T10:10:46;7.13;;;4.35;;
14118;SDS011;7138;49.246;9.100;2023-01-28T10:13:20;9.25;;;4.35;;
14118;SDS011;7138;49.246;9.100;2023-01-28T10:15:59;8.38;;;4.22;;
14118;SDS011;7138;49.246;9.100;2023-01-28T10:18:42;7.95;;;4.57;;
14118;SDS011;7138;49.246;9.100;2023-01-28T10:21:17;8.65;;;5.13;;
14118;SDS011;7138;49.246;9.100;2023-01-28T10:23:54;8.63;;;4.93;;
14118;SDS011;7138;49.246;9.100;2023-01-28T10:26:29;10.18;;;5.85;;
14118;SDS011;7138;49.246;9.100;2023-01-28T10:29:02;11.75;;;6.03;;
14118;SDS011;7138;49.246;9.100;2023-01-28T10:31:39;11.18;;;6.55;;
14118;SDS011;7138;49.246;9.100;2023-01-28T10:34:17;13.07;;;5.80;;
14118;SDS011;7138;49.246;9.100;2023-01-28T10:36:43;8.88;;;4.75;;
14118;SDS011;7138;49.246;9.100;2023-01-28T10:39:10;7.40;;;4.82;;
14118;SDS011;7138;49.246;9.100;2023-01-28T10:44:07;8.27;;;4.47;;
14118;SDS011;7138;49.246;9.100;2023-01-28T10:46:42;7.35;;;4.47;;
14118;SDS011;7138;49.246;9.100;2023-01-28T10:49:13;8.35;;;4.88;;
14118;SDS011;7138;49.246;9.100;2023-01-28T10:51:46;7.78;;;4.68;;
14118;SDS011;7138;49.246;9.100;2023-01-28T10:54:17;7.80;;;4.53;;
14118;SDS011;7138;49.246;9.100;2023-01-28T10:56:45;7.55;;;5.03;;
14118;SDS011;7138;49.246;9.100;2023-01-28T10:59:17;8.35;;;4.88;;
14118;SDS011;7138;49.246;9.100;2023-01-28T11:01:50;8.27;;;4.80;;
14118;SDS011;7138;49.246;9.100;2023-01-28T11:04:23;7.30;;;3.92;;
14118;SDS011;7138;49.246;9.100;2023-01-28T11:06:53;7.38;;;4.35;;
14118;SDS011;7138;49.246;9.100;2023-01-28T11:09:23;7.80;;;4.55;;
14118;SDS011;7138;49.246;9.100;2023-01-28T11:11:52;7.90;;;4.40;;
14118;SDS011;7138;49.246;9.100;2023-01-28T11:14:19;8.02;;;4.50;;
14118;SDS011;7138;49.246;9.100;2023-01-28T11:16:48;6.78;;;4.10;;
14118;SDS011;7138;49.246;9.100;2023-01-28T11:19:17;6.20;;;3.15;;
14118;SDS011;7138;49.246;9.100;2023-01-28T11:21:48;6.57;;;3.55;;
14118;SDS011;7138;49.246;9.100;2023-01-28T11:24:20;7.53;;;4.20;;
14118;SDS011;7138;49.246;9.100;2023-01-28T11:26:51;7.38;;;4.25;;
14118;SDS011;7138;49.246;9.100;2023-01-28T11:29:21;6.38;;;3.90;;
14118;SDS011;7138;49.246;9.100;2023-01-28T11:31:54;7.93;;;4.47;;
14118;SDS011;7138;49.246;9.100;2023-01-28T11:34:24;8.15;;;4.57;;
14118;SDS011;7138;49.246;9.100;2023-01-28T11:36:59;7.00;;;4.05;;
14118;SDS011;7138;49.246;9.100;2023-01-28T11:39:28;9.55;;;4.57;;
14118;SDS011;7138;49.246;9.100;2023-01-28T11:42:02;5.50;;;3.63;;
14118;SDS011;7138;49.246;9.100;2023-01-28T11:44:37;6.82;;;3.60;;
14118;SDS011;7138;49.246;9.100;2023-01-28T11:47:07;6.32;;;3.53;;
14118;SDS011;7138;49.246;9.100;2023-01-28T11:50:04;6.22;;;3.72;;
14118;SDS011;7138;49.246;9.100;2023-01-28T11:52:52;6.40;;;3.58;;
14118;SDS011;7138;49.246;9.100;2023-01-28T11:55:45;8.05;;;3.70;;
14118;SDS011;7138;49.246;9.100;2023-01-28T11:58:30;6.77;;;4.00;;
14118;SDS011;7138;49.246;9.100;2023-01-28T12:01:11;6.90;;;3.65;;
14118;SDS011;7138;49.246;9.100;2023-01-28T12:03:50;6.82;;;3.53;;
14118;SDS011;7138;49.246;9.100;2023-01-28T12:06:52;5.72;;;3.25;;
14118;SDS011;7138;49.246;9.100;2023-01-28T12:09:44;5.63;;;3.35;;
14118;SDS011;7138;49.246;9.100;2023-01-28T12:12:24;5.35;;;3.47;;
14118;SDS011;7138;49.246;9.100;2023-01-28T12:15:25;6.13;;;3.28;;
14118;SDS011;7138;49.246;9.100;2023-01-28T12:18:31;7.35;;;3.80;;
14118;SDS011;7138;49.246;9.100;2023-01-28T12:21:31;7.35;;;3.58;;
14118;SDS011;7138;49.246;9.100;2023-01-28T12:24:22;6.65;;;3.63;;
14118;SDS011;7138;49.246;9.100;2023-01-28T12:27:10;7.07;;;3.20;;
14118;SDS011;7138;49.246;9.100;2023-01-28T12:29:56;5.53;;;3.15;;
14118;SDS011;7138;49.246;9.100;2023-01-28T12:35:16;4.85;;;2.83;;
14118;SDS011;7138;49.246;9.100;2023-01-28T12:37:58;7.63;;;3.30;;
14118;SDS011;7138;49.246;9.100;2023-01-28T12:40:37;5.50;;;3.40;;
14118;SDS011;7138;49.246;9.100;2023-01-28T12:43:25;7.70;;;4.05;;
14118;SDS011;7138;49.246;9.100;2023-01-28T12:46:13;6.10;;;3.58;;
14118;SDS011;7138;49.246;9.100;2023-01-28T12:48:51;6.85;;;3.90;;
14118;SDS011;7138;49.246;9.100;2023-01-28T12:51:26;5.80;;;3.17;;
14118;SDS011;7138;49.246;9.100;2023-01-28T12:53:57;6.32;;;3.45;;
14118;SDS011;7138;49.246;9.100;2023-01-28T12:56:34;6.57;;;3.60;;
14118;SDS011;7138;49.246;9.100;2023-01-28T12:59:09;7.10;;;3.83;;
14118;SDS011;7138;49.246;9.100;2023-01-28T13:01:43;6.15;;;3.58;;
14118;SDS011;7138;49.246;9.100;2023-01-28T13:04:21;6.55;;;3.38;;
14118;SDS011;7138;49.246;9.100;2023-01-28T13:06:59;6.47;;;3.20;;
14118;SDS011;7138;49.246;9.100;2023-01-28T13:09:32;5.80;;;3.20;;
14118;SDS011;7138;49.246;9.100;2023-01-28T13:12:02;5.95;;;2.70;;
14118;SDS011;7138;49.246;9.100;2023-01-28T13:14:32;5.75;;;2.72;;
14118;SDS011;7138;49.246;9.100;2023-01-28T13:17:07;5.63;;;3.65;;
14118;SDS011;7138;49.246;9.100;2023-01-28T13:19:35;6.22;;;3.22;;
14118;SDS011;7138;49.246;9.100;2023-01-28T13:22:24;6.85;;;3.60;;
14118;SDS011;7138;49.246;9.100;2023-01-28T13:24:54;5.20;;;2.95;;
14118;SDS011;7138;49.246;9.100;2023-01-28T13:27:22;5.82;;;2.70;;
14118;SDS011;7138;49.246;9.100;2023-01-28T13:30:00;5.20;;;2.97;;
14118;SDS011;7138;49.246;9.100;2023-01-28T13:32:31;6.38;;;3.53;;
14118;SDS011;7138;49.246;9.100;2023-01-28T13:35:00;6.00;;;2.97;;
14118;SDS011;7138;49.246;9.100;2023-01-28T13:37:31;7.20;;;3.15;;
14118;SDS011;7138;49.246;9.100;2023-01-28T13:40:19;4.97;;;3.00;;
14118;SDS011;7138;49.246;9.100;2023-01-28T13:42:56;6.47;;;3.50;;
14118;SDS011;7138;49.246;9.100;2023-01-28T13:45:27;5.68;;;2.97;;
14118;SDS011;7138;49.246;9.100;2023-01-28T13:47:56;5.30;;;3.00;;
14118;SDS011;7138;49.246;9.100;2023-01-28T13:50:38;5.68;;;3.25;;
14118;SDS011;7138;49.246;9.100;2023-01-28T13:53:15;5.25;;;2.70;;
14118;SDS011;7138;49.246;9.100;2023-01-28T13:55:52;6.70;;;2.92;;
14118;SDS011;7138;49.246;9.100;2023-01-28T14:01:58;4.85;;;2.72;;
14118;SDS011;7138;49.246;9.100;2023-01-28T14:04:56;4.97;;;2.83;;
14118;SDS011;7138;49.246;9.100;2023-01-28T14:11:23;6.18;;;2.80;;
14118;SDS011;7138;49.246;9.100;2023-01-28T14:14:31;4.47;;;2.70;;
14118;SDS011;7138;49.246;9.100;2023-01-28T14:17:21;6.53;;;2.90;;
14118;SDS011;7138;49.246;9.100;2023-01-28T14:20:06;5.35;;;2.88;;
14118;SDS011;7138;49.246;9.100;2023-01-28T14:22:44;4.25;;;2.47;;
14118;SDS011;7138;49.246;9.100;2023-01-28T14:25:11;5.45;;;3.00;;
14118;SDS011;7138;49.246;9.100;2023-01-28T14:27:47;6.65;;;3.08;;
14118;SDS011;7138;49.246;9.100;2023-01-28T14:30:19;5.63;;;2.38;;
14118;SDS011;7138;49.246;9.100;2023-01-28T14:32:54;5.65;;;2.63;;
14118;SDS011;7138;49.246;9.100;2023-01-28T14:35:23;5.00;;;2.40;;
14118;SDS011;7138;49.246;9.100;2023-01-28T14:37:54;4.40;;;2.30;;
14118;SDS011;7138;49.246;9.100;2023-01-28T14:40:23;4.47;;;2.50;;
14118;SDS011;7138;49.246;9.100;2023-01-28T14:42:51;3.92;;;2.00;;
14118;SDS011;7138;49.246;9.100;2023-01-28T14:48:27;4.55;;;2.20;;
14118;SDS011;7138;49.246;9.100;2023-01-28T14:51:12;5.78;;;2.75;;
14118;SDS011;7138;49.246;9.100;2023-01-28T14:54:02;6.00;;;2.67;;
14118;SDS011;7138;49.246;9.100;2023-01-28T14:57:02;4.38;;;2.60;;
14118;SDS011;7138;49.246;9.100;2023-01-28T14:59:45;8.13;;;3.20;;
14118;SDS011;7138;49.246;9.100;2023-01-28T15:02:17;5.30;;;2.78;;
14118;SDS011;7138;49.246;9.100;2023-01-28T15:04:47;5.10;;;2.85;;
14118;SDS011;7138;49.246;9.100;2023-01-28T15:07:15;5.80;;;2.53;;
14118;SDS011;7138;49.246;9.100;2023-01-28T15:09:43;4.35;;;2.45;;
14118;SDS011;7138;49.246;9.100;2023-01-28T15:12:10;4.82;;;2.55;;
14118;SDS011;7138;49.246;9.100;2023-01-28T15:14:38;5.22;;;2.80;;
14118;SDS011;7138;49.246;9.100;2023-01-28T15:17:11;5.25;;;2.20;;
14118;SDS011;7138;49.246;9.100;2023-01-28T15:19:51;3.97;;;2.10;;
14118;SDS011;7138;49.246;9.100;2023-01-28T15:22:21;3.70;;;2.00;;
14118;SDS011;7138;49.246;9.100;2023-01-28T15:24:51;4.28;;;1.88;;
14118;SDS011;7138;49.246;9.100;2023-01-28T15:27:19;4.97;;;2.38;;
14118;SDS011;7138;49.246;9.100;2023-01-28T15:29:53;3.97;;;2.15;;
14118;SDS011;7138;49.246;9.100;2023-01-28T15:32:22;5.03;;;2.33;;
14118;SDS011;7138;49.246;9.100;2023-01-28T15:34:52;3.45;;;2.22;;
14118;SDS011;7138;49.246;9.100;2023-01-28T15:37:18;3.17;;;1.58;;
14118;SDS011;7138;49.246;9.100;2023-01-28T15:39:45;3.22;;;1.80;;
14118;SDS011;7138;49.246;9.100;2023-01-28T15:42:17;3.95;;;1.95;;
14118;SDS011;7138;49.246;9.100;2023-01-28T15:44:47;3.47;;;1.90;;
14118;SDS011;7138;49.246;9.100;2023-01-28T15:47:15;3.55;;;1.85;;